createdAt,value
2022-12-01T00:01:45.377Z,101620.22
2022-12-01T00:03:49.964Z,101617.56
2022-12-01T00:05:59.624Z,101616.66
2022-12-01T00:08:04.040Z,101614.97
2022-12-01T00:10:25.594Z,101607.94
2022-12-01T00:12:31.236Z,101614.88
2022-12-01T00:14:34.174Z,101609.72
2022-12-01T00:16:38.506Z,101607.97
2022-12-01T00:18:41.912Z,101607.94
2022-12-01T00:20:45.113Z,101604.41
2022-12-01T00:22:48.882Z,101604.41
2022-12-01T00:24:51.886Z,101605.25
2022-12-01T00:26:54.732Z,101599.19
2022-12-01T00:29:00.820Z,101597.44
2022-12-01T00:31:08.078Z,101602.63
2022-12-01T00:33:11.030Z,101598.28
2022-12-01T00:35:14.878Z,101602.72
2022-12-01T00:37:17.828Z,101600.06
2022-12-01T00:39:20.712Z,101595.69
2022-12-01T00:41:25.139Z,101599.19
2022-12-01T00:43:28.303Z,101601.75
2022-12-01T00:45:33.427Z,101596.50
2022-12-01T00:47:36.301Z,101600.94
2022-12-01T00:49:39.346Z,101601.75
2022-12-01T00:51:42.847Z,101605.31
2022-12-01T00:53:45.941Z,101611.44
2022-12-01T00:55:49.304Z,101610.56
2022-12-01T00:57:52.520Z,101612.31
2022-12-01T00:59:55.620Z,101615.78
2022-12-01T01:02:00.292Z,101611.38
2022-12-01T01:04:03.367Z,101617.50
2022-12-01T01:06:07.752Z,101613.16
2022-12-01T01:08:11.427Z,101618.44
2022-12-01T01:10:14.505Z,101623.75
2022-12-01T01:12:17.424Z,101615.81
2022-12-01T01:14:21.764Z,101609.66
2022-12-01T01:16:24.809Z,101616.66
2022-12-01T01:18:30.204Z,101627.19
2022-12-01T01:20:34.240Z,101616.69
2022-12-01T01:22:37.303Z,101629.00
2022-12-01T01:24:40.191Z,101625.44
2022-12-01T01:26:43.452Z,101619.28
2022-12-01T01:28:46.465Z,101623.69
2022-12-01T01:30:49.515Z,101624.56
2022-12-01T01:32:52.730Z,101623.69
2022-12-01T01:34:57.084Z,101623.81
2022-12-01T01:37:00.128Z,101628.97
2022-12-01T01:39:03.291Z,101630.69
2022-12-01T01:41:07.388Z,101638.56
2022-12-01T01:43:15.352Z,101632.44
2022-12-01T01:45:21.919Z,101628.91
2022-12-01T01:47:26.994Z,101634.22
2022-12-01T01:49:29.945Z,101644.75
2022-12-01T01:51:37.775Z,101645.59
2022-12-01T01:53:40.675Z,101633.44
2022-12-01T01:55:43.682Z,101644.72
2022-12-01T01:57:46.715Z,101643.88
2022-12-01T01:59:51.884Z,101641.22
2022-12-01T02:02:01.191Z,101640.34
2022-12-01T02:04:05.201Z,101638.56
2022-12-01T02:06:09.379Z,101641.22
2022-12-01T02:08:13.926Z,101642.94
2022-12-01T02:10:22.587Z,101643.94
2022-12-01T02:12:38.342Z,101636.84
2022-12-01T02:14:54.156Z,101643.84
2022-12-01T02:17:02.233Z,101632.50
2022-12-01T02:19:16.229Z,101638.56
2022-12-01T02:21:39.122Z,101636.81
2022-12-01T02:24:18.437Z,101629.81
2022-12-01T02:26:38.844Z,101620.25
2022-12-01T02:28:58.468Z,101628.06
2022-12-01T02:31:05.240Z,101629.00
2022-12-01T02:33:13.985Z,101618.53
2022-12-01T02:35:23.255Z,101621.13
2022-12-01T02:37:32.747Z,101628.25
2022-12-01T02:39:39.379Z,101623.00
2022-12-01T02:41:44.985Z,101620.44
2022-12-01T02:43:53.397Z,101620.38
2022-12-01T02:45:59.697Z,101620.38
2022-12-01T02:48:07.120Z,101630.00
2022-12-01T02:50:12.019Z,101632.63
2022-12-01T02:52:15.348Z,101632.69
2022-12-01T02:54:18.862Z,101632.59
2022-12-01T02:56:23.235Z,101634.34
2022-12-01T02:58:26.318Z,101631.69
2022-12-01T03:00:31.614Z,101634.34
2022-12-01T03:02:42.430Z,101632.56
2022-12-01T03:04:57.177Z,101636.06
2022-12-01T03:07:04.639Z,101628.19
2022-12-01T03:09:15.736Z,101632.53
2022-12-01T03:11:28.018Z,101636.00
2022-12-01T03:13:39.711Z,101637.78
2022-12-01T03:15:48.472Z,101640.38
2022-12-01T03:17:57.703Z,101635.16
2022-12-01T03:20:08.649Z,101631.66
2022-12-01T03:22:13.884Z,101636.06
2022-12-01T03:24:19.423Z,101630.81
2022-12-01T03:26:24.130Z,101627.38
2022-12-01T03:28:32.549Z,101634.28
2022-12-01T03:30:38.028Z,101628.19
2022-12-01T03:32:47.475Z,101639.53
2022-12-01T03:34:52.750Z,101624.63
2022-12-01T03:36:59.071Z,101637.81
2022-12-01T03:39:05.991Z,101636.94
2022-12-01T03:41:11.935Z,101630.81
2022-12-01T03:43:20.208Z,101636.06
2022-12-01T03:45:27.671Z,101634.28
2022-12-01T03:47:32.467Z,101629.03
2022-12-01T03:49:35.741Z,101633.34
2022-12-01T03:51:43.273Z,101636.00
2022-12-01T03:53:52.794Z,101635.16
2022-12-01T03:56:02.202Z,101629.97
2022-12-01T03:58:07.658Z,101629.03
2022-12-01T04:00:12.505Z,101629.91
2022-12-01T04:02:15.866Z,101628.16
2022-12-01T04:04:19.025Z,101628.19
2022-12-01T04:06:22.027Z,101634.31
2022-12-01T04:08:25.169Z,101635.16
2022-12-01T04:10:29.628Z,101624.69
2022-12-01T04:12:32.931Z,101634.28
2022-12-01T04:14:35.841Z,101630.78
2022-12-01T04:16:39.004Z,101638.66
2022-12-01T04:18:42.048Z,101630.75
2022-12-01T04:20:46.638Z,101636.06
2022-12-01T04:22:50.112Z,101632.56
2022-12-01T04:24:53.197Z,101636.03
2022-12-01T04:26:57.750Z,101627.28
2022-12-01T04:29:01.035Z,101639.53
2022-12-01T04:31:04.020Z,101633.38
2022-12-01T04:33:06.953Z,101634.28
2022-12-01T04:35:11.425Z,101637.81
2022-12-01T04:37:14.449Z,101634.28
2022-12-01T04:39:17.512Z,101636.03
2022-12-01T04:41:20.541Z,101631.59
2022-12-01T04:43:24.920Z,101625.53
2022-12-01T04:45:28.082Z,101634.28
2022-12-01T04:47:31.103Z,101636.03
2022-12-01T04:49:34.949Z,101629.06
2022-12-01T04:51:38.037Z,101637.81
2022-12-01T04:53:40.965Z,101632.56
2022-12-01T04:55:43.978Z,101629.94
2022-12-01T04:57:47.029Z,101637.81
2022-12-01T04:59:51.710Z,101630.81
2022-12-01T05:01:55.107Z,101636.03
2022-12-01T05:03:58.296Z,101635.25
2022-12-01T05:06:04.493Z,101636.09
2022-12-01T05:08:07.446Z,101636.97
2022-12-01T05:10:12.857Z,101636.97
2022-12-01T05:12:17.494Z,101634.38
2022-12-01T05:14:20.404Z,101647.47
2022-12-01T05:16:26.329Z,101641.38
2022-12-01T05:18:29.203Z,101643.09
2022-12-01T05:20:49.803Z,101638.72
2022-12-01T05:23:09.788Z,101639.59
2022-12-01T05:25:16.527Z,101639.59
2022-12-01T05:27:19.768Z,101645.66
2022-12-01T05:29:23.532Z,101643.09
2022-12-01T05:31:27.832Z,101646.59
2022-12-01T05:33:31.160Z,101644.84
2022-12-01T05:35:34.527Z,101637.84
2022-12-01T05:37:37.342Z,101645.69
2022-12-01T05:39:40.494Z,101645.69
2022-12-01T05:41:43.424Z,101640.47
2022-12-01T05:43:46.494Z,101644.84
2022-12-01T05:45:50.772Z,101647.47
2022-12-01T05:47:56.969Z,101645.69
2022-12-01T05:50:05.099Z,101648.38
2022-12-01T05:52:08.778Z,101657.13
2022-12-01T05:54:12.083Z,101650.13
2022-12-01T05:56:14.990Z,101655.34
2022-12-01T05:58:17.919Z,101657.13
2022-12-01T06:00:21.757Z,101657.13
2022-12-01T06:02:26.873Z,101654.50
2022-12-01T06:04:31.280Z,101661.47
2022-12-01T06:06:34.244Z,101658.84
2022-12-01T06:08:37.163Z,101655.34
2022-12-01T06:10:40.017Z,101665.78
2022-12-01T06:12:43.013Z,101650.97
2022-12-01T06:14:46.137Z,101653.56
2022-12-01T06:16:49.014Z,101664.06
2022-12-01T06:18:52.364Z,101661.44
2022-12-01T06:20:56.623Z,101666.69
2022-12-01T06:23:00.079Z,101659.72
2022-12-01T06:25:03.243Z,101670.19
2022-12-01T06:27:06.548Z,101667.63
2022-12-01T06:29:12.808Z,101664.13
2022-12-01T06:31:15.728Z,101665.00
2022-12-01T06:33:18.601Z,101667.63
2022-12-01T06:35:22.534Z,101673.75
2022-12-01T06:37:28.836Z,101658.84
2022-12-01T06:39:31.794Z,101666.75
2022-12-01T06:41:34.848Z,101664.97
2022-12-01T06:43:38.556Z,101666.75
2022-12-01T06:45:41.486Z,101667.59
2022-12-01T06:47:44.436Z,101667.63
2022-12-01T06:49:47.823Z,101676.34
2022-12-01T06:51:51.252Z,101675.47
2022-12-01T06:53:58.674Z,101674.56
2022-12-01T06:56:06.207Z,101678.09
2022-12-01T06:58:09.464Z,101678.06
2022-12-01T07:00:14.151Z,101682.44
2022-12-01T07:02:17.632Z,101689.47
2022-12-01T07:04:20.894Z,101683.31
2022-12-01T07:06:23.899Z,101681.59
2022-12-01T07:08:27.043Z,101677.22
2022-12-01T07:10:31.534Z,101685.97
2022-12-01T07:12:34.464Z,101684.22
2022-12-01T07:14:37.856Z,101684.22
2022-12-01T07:16:40.771Z,101685.06
2022-12-01T07:18:45.048Z,101691.19
2022-12-01T07:20:48.315Z,101685.09
2022-12-01T07:22:51.180Z,101694.69
2022-12-01T07:24:54.109Z,101698.19
2022-12-01T07:26:58.340Z,101697.31
2022-12-01T07:29:01.216Z,101699.06
2022-12-01T07:31:05.405Z,101697.34
2022-12-01T07:33:08.479Z,101699.09
2022-12-01T07:35:11.362Z,101699.94
2022-12-01T07:37:14.723Z,101708.69
2022-12-01T07:39:18.781Z,101700.81
2022-12-01T07:41:21.636Z,101699.06
2022-12-01T07:43:27.924Z,101699.06
2022-12-01T07:45:30.768Z,101704.31
2022-12-01T07:47:33.662Z,101698.19
2022-12-01T07:49:36.512Z,101710.44
2022-12-01T07:51:39.385Z,101707.81
2022-12-01T07:53:42.627Z,101705.19
2022-12-01T07:55:49.528Z,101708.69
2022-12-01T07:57:53.593Z,101712.16
2022-12-01T07:59:57.844Z,101712.16
2022-12-01T08:02:01.015Z,101711.31
2022-12-01T08:04:04.045Z,101709.56
2022-12-01T08:06:07.484Z,101716.53
2022-12-01T08:08:10.520Z,101717.41
2022-12-01T08:10:13.701Z,101718.28
2022-12-01T08:12:16.511Z,101718.31
2022-12-01T08:14:20.381Z,101715.66
2022-12-01T08:16:25.358Z,101718.28
2022-12-01T08:18:28.195Z,101722.66
2022-12-01T08:20:33.687Z,101720.91
2022-12-01T08:22:36.577Z,101723.53
2022-12-01T08:24:39.449Z,101721.78
2022-12-01T08:26:42.243Z,101721.78
2022-12-01T08:28:45.835Z,101725.28
2022-12-01T08:30:48.936Z,101719.19
2022-12-01T08:32:56.389Z,101729.63
2022-12-01T08:34:59.259Z,101737.50
2022-12-01T08:37:02.172Z,101734.91
2022-12-01T08:39:05.251Z,101734.88
2022-12-01T08:41:09.904Z,101741.00
2022-12-01T08:43:56.453Z,101735.78
2022-12-01T08:45:59.845Z,101734.88
2022-12-01T08:48:04.252Z,101734.00
2022-12-01T08:50:09.292Z,101734.03
2022-12-01T08:52:12.154Z,101740.13
2022-12-01T08:54:15.193Z,101735.78
2022-12-01T08:56:20.611Z,101738.38
2022-12-01T08:58:23.446Z,101744.47
2022-12-01T09:00:26.317Z,101741.00
2022-12-01T09:02:29.381Z,101738.41
2022-12-01T09:04:34.149Z,101736.66
2022-12-01T09:06:49.757Z,101735.78
2022-12-01T09:08:52.635Z,101738.38
2022-12-01T09:10:55.754Z,101737.50
2022-12-01T09:12:58.676Z,101739.25
2022-12-01T09:15:01.530Z,101741.84
2022-12-01T09:17:04.622Z,101743.63
2022-12-01T09:19:13.420Z,101740.13
2022-12-01T09:21:19.810Z,101738.34
2022-12-01T09:23:23.430Z,101741.88
2022-12-01T09:25:26.301Z,101744.47
2022-12-01T09:27:29.167Z,101747.94
2022-12-01T09:29:32.108Z,101748.84
2022-12-01T09:31:35.878Z,101744.50
2022-12-01T09:33:39.264Z,101747.97
2022-12-01T09:35:44.667Z,101740.97
2022-12-01T09:37:48.958Z,101746.22
2022-12-01T09:39:52.027Z,101743.63
2022-12-01T09:41:57.162Z,101743.63
2022-12-01T09:44:05.618Z,101743.59
2022-12-01T09:46:14.675Z,101746.22
2022-12-01T09:48:25.421Z,101742.72
2022-12-01T09:50:30.079Z,101736.59
2022-12-01T09:52:35.931Z,101742.72
2022-12-01T09:54:41.082Z,101738.38
2022-12-01T09:56:46.471Z,101740.09
2022-12-01T09:58:52.601Z,101737.47
2022-12-01T10:00:56.203Z,101735.72
2022-12-01T10:03:06.007Z,101734.00
2022-12-01T10:05:14.411Z,101731.38
2022-12-01T10:07:20.896Z,101727.88
2022-12-01T10:09:28.558Z,101728.75
2022-12-01T10:11:36.672Z,101723.47
2022-12-01T10:13:39.574Z,101721.72
2022-12-01T10:15:48.035Z,101723.47
2022-12-01T10:18:00.276Z,101723.47
2022-12-01T10:20:09.975Z,101725.22
2022-12-01T10:22:26.245Z,101717.28
2022-12-01T10:24:40.104Z,101719.03
2022-12-01T10:26:51.582Z,101712.91
2022-12-01T10:29:03.041Z,101716.44
2022-12-01T10:31:11.349Z,101708.53
2022-12-01T10:33:21.107Z,101709.41
2022-12-01T10:35:29.144Z,101709.44
2022-12-01T10:37:32.648Z,101705.94
2022-12-01T10:39:39.402Z,101713.81
2022-12-01T10:41:42.998Z,101708.56
2022-12-01T10:43:48.698Z,101701.56
2022-12-01T10:45:51.805Z,101703.25
2022-12-01T10:48:15.714Z,101693.69
2022-12-01T10:50:27.445Z,101691.84
2022-12-01T10:52:36.736Z,101692.69
2022-12-01T10:54:43.309Z,101685.69
2022-12-01T10:56:49.069Z,101684.81
2022-12-01T10:58:56.965Z,101687.44
2022-12-01T11:01:03.312Z,101683.00
2022-12-01T11:03:06.711Z,101682.09
2022-12-01T11:05:24.641Z,101676.91
2022-12-01T11:07:29.708Z,101672.50
2022-12-01T11:09:32.770Z,101675.22
2022-12-01T11:11:38.008Z,101673.47
2022-12-01T11:13:43.305Z,101669.03
2022-12-01T11:15:53.554Z,101674.28
2022-12-01T11:18:01.095Z,101672.56
2022-12-01T11:20:27.816Z,101673.56
2022-12-01T11:22:32.203Z,101664.72
2022-12-01T11:24:42.771Z,101663.88
2022-12-01T11:26:45.859Z,101664.75
2022-12-01T11:28:53.799Z,101674.31
2022-12-01T11:31:01.435Z,101666.38
2022-12-01T11:33:05.455Z,101664.69
2022-12-01T11:35:17.906Z,101663.81
2022-12-01T11:37:23.181Z,101659.34
2022-12-01T11:39:28.404Z,101665.59
2022-12-01T11:41:35.397Z,101655.09
2022-12-01T11:43:42.616Z,101655.94
2022-12-01T11:45:49.449Z,101658.59
2022-12-01T11:48:06.068Z,101660.28
2022-12-01T11:50:25.495Z,101647.25
2022-12-01T11:52:31.791Z,101651.53
2022-12-01T11:54:34.803Z,101649.72
2022-12-01T11:56:37.833Z,101654.13
2022-12-01T11:58:40.947Z,101642.84
2022-12-01T12:00:47.193Z,101648.06
2022-12-01T12:03:09.693Z,101636.78
2022-12-01T12:05:40.449Z,101644.63
2022-12-01T12:07:49.254Z,101639.38
2022-12-01T12:10:04.965Z,101638.50
2022-12-01T12:12:17.952Z,101637.56
2022-12-01T12:14:30.926Z,101646.41
2022-12-01T12:16:47.016Z,101643.78
2022-12-01T12:19:06.485Z,101636.78
2022-12-01T12:21:16.327Z,101641.09
2022-12-01T12:23:36.249Z,101642.91
2022-12-01T12:25:52.233Z,101640.31
2022-12-01T12:28:07.692Z,101641.25
2022-12-01T12:30:21.104Z,101649.91
2022-12-01T12:32:36.124Z,101635.94
2022-12-01T12:34:51.499Z,101640.34
2022-12-01T12:37:03.225Z,101631.53
2022-12-01T12:39:18.321Z,101632.47
2022-12-01T12:41:29.817Z,101623.63
2022-12-01T12:43:40.272Z,101621.00
2022-12-01T12:45:51.464Z,101627.91
2022-12-01T12:48:06.680Z,101623.56
2022-12-01T12:50:29.519Z,101621.81
2022-12-01T12:52:36.444Z,101618.31
2022-12-01T12:54:44.700Z,101621.84
2022-12-01T12:56:49.534Z,101606.09
2022-12-01T12:58:57.676Z,101609.56
2022-12-01T13:01:03.701Z,101606.09
2022-12-01T13:03:14.349Z,101613.13
2022-12-01T13:05:20.490Z,101610.50
2022-12-01T13:07:34.237Z,101603.53
2022-12-01T13:09:40.609Z,101598.28
2022-12-01T13:11:47.285Z,101607.88
2022-12-01T13:13:57.030Z,101607.88
2022-12-01T13:16:04.459Z,101603.50
2022-12-01T13:18:13.770Z,101602.63
2022-12-01T13:20:19.226Z,101600.81
2022-12-01T13:22:25.913Z,101600.84
2022-12-01T13:24:31.500Z,101603.47
2022-12-01T13:26:36.004Z,101603.44
2022-12-01T13:28:42.539Z,101599.13
2022-12-01T13:30:59.725Z,101600.00
2022-12-01T13:33:04.840Z,101590.34
2022-12-01T13:35:29.315Z,101590.41
2022-12-01T13:37:33.583Z,101588.59
2022-12-01T13:39:39.143Z,101589.56
2022-12-01T13:41:44.298Z,101579.06
2022-12-01T13:43:55.957Z,101584.25
2022-12-01T13:46:03.333Z,101581.69
2022-12-01T13:48:09.733Z,101578.22
2022-12-01T13:50:55.284Z,101578.22
2022-12-01T13:53:11.179Z,101576.47
2022-12-01T13:55:31.079Z,101576.44
2022-12-01T13:57:35.241Z,101575.53
2022-12-01T14:00:06.721Z,101576.47
2022-12-01T14:02:20.863Z,101578.22
2022-12-01T14:04:32.245Z,101574.66
2022-12-01T14:06:39.617Z,101577.31
2022-12-01T14:08:47.868Z,101577.28
2022-12-01T14:10:56.375Z,101578.19
2022-12-01T14:13:03.971Z,101581.75
2022-12-01T14:15:23.766Z,101582.59
2022-12-01T14:17:28.942Z,101577.28
2022-12-01T14:19:35.950Z,101581.69
2022-12-01T14:21:42.574Z,101579.97
2022-12-01T14:24:01.265Z,101580.84
2022-12-01T14:26:14.192Z,101575.63
2022-12-01T14:28:18.345Z,101579.16
2022-12-01T14:30:58.756Z,101579.97
2022-12-01T14:33:37.404Z,101582.63
2022-12-01T14:35:40.707Z,101577.31
2022-12-01T14:37:49.327Z,101584.34
2022-12-01T14:39:58.182Z,101587.00
2022-12-01T14:42:05.296Z,101590.59
2022-12-01T14:44:13.792Z,101592.38
2022-12-01T14:46:22.588Z,101590.63
2022-12-01T14:48:29.421Z,101587.94
2022-12-01T14:50:46.439Z,101586.19
2022-12-01T14:52:52.306Z,101589.75
2022-12-01T14:55:01.911Z,101599.34
2022-12-01T14:57:12.367Z,101597.63
2022-12-01T14:59:21.925Z,101597.59
2022-12-01T15:01:25.546Z,101593.25
2022-12-01T15:03:38.452Z,101595.88
2022-12-01T15:05:42.972Z,101597.63
2022-12-01T15:07:48.573Z,101595.88
2022-12-01T15:10:00.007Z,101595.00
2022-12-01T15:12:06.862Z,101591.47
2022-12-01T15:14:26.184Z,101605.56
2022-12-01T15:16:31.982Z,101594.16
2022-12-01T15:18:36.751Z,101595.00
2022-12-01T15:20:44.960Z,101595.03
2022-12-01T15:22:53.029Z,101603.78
2022-12-01T15:24:55.903Z,101604.63
2022-12-01T15:27:03.707Z,101606.44
2022-12-01T15:29:17.053Z,101615.19
2022-12-01T15:31:21.598Z,101614.28
2022-12-01T15:33:29.806Z,101622.16
2022-12-01T15:35:36.299Z,101626.56
2022-12-01T15:37:43.656Z,101625.69
2022-12-01T15:39:48.579Z,101622.16
2022-12-01T15:41:54.053Z,101622.19
2022-12-01T15:43:58.713Z,101623.06
2022-12-01T15:46:04.752Z,101622.19
2022-12-01T15:48:18.307Z,101624.81
2022-12-01T15:50:29.816Z,101630.06
2022-12-01T15:52:33.056Z,101625.72
2022-12-01T15:54:36.080Z,101627.47
2022-12-01T15:56:41.217Z,101618.75
2022-12-01T15:58:48.080Z,101622.25
2022-12-01T16:00:57.107Z,101614.38
2022-12-01T16:03:02.082Z,101611.75
2022-12-01T16:05:16.826Z,101609.16
2022-12-01T16:07:19.861Z,101602.16
2022-12-01T16:09:26.560Z,101603.06
2022-12-01T16:11:29.856Z,101598.69
2022-12-01T16:13:45.499Z,101603.06
2022-12-01T16:15:48.590Z,101599.56
2022-12-01T16:17:53.918Z,101596.06
2022-12-01T16:20:35.569Z,101596.94
2022-12-01T16:22:38.776Z,101590.78
2022-12-01T16:24:46.462Z,101593.41
2022-12-01T16:26:50.571Z,101587.31
2022-12-01T16:28:53.432Z,101585.56
2022-12-01T16:30:56.576Z,101585.56
2022-12-01T16:33:03.955Z,101588.19
2022-12-01T16:35:07.685Z,101593.41
2022-12-01T16:37:13.296Z,101595.16
2022-12-01T16:39:16.932Z,101597.78
2022-12-01T16:41:33.467Z,101599.53
2022-12-01T16:43:39.659Z,101598.63
2022-12-01T16:45:42.651Z,101598.63
2022-12-01T16:47:46.592Z,101599.53
2022-12-01T16:49:50.019Z,101599.53
2022-12-01T16:51:57.277Z,101610.88
2022-12-01T16:54:03.849Z,101609.09
2022-12-01T16:56:07.334Z,101610.84
2022-12-01T16:58:10.638Z,101621.31
2022-12-01T17:00:14.660Z,101614.34
2022-12-01T17:02:17.751Z,101623.94
2022-12-01T17:04:20.705Z,101625.69
2022-12-01T17:06:24.440Z,101624.81
2022-12-01T17:08:27.421Z,101616.97
2022-12-01T17:10:31.705Z,101623.91
2022-12-01T17:12:34.659Z,101622.19
2022-12-01T17:14:37.942Z,101624.78
2022-12-01T17:16:40.798Z,101627.38
2022-12-01T17:18:43.638Z,101628.25
2022-12-01T17:20:46.658Z,101623.84
2022-12-01T17:22:49.515Z,101627.31
2022-12-01T17:24:54.533Z,101635.19
2022-12-01T17:26:58.825Z,101628.19
2022-12-01T17:29:01.877Z,101634.31
2022-12-01T17:31:05.418Z,101635.19
2022-12-01T17:33:08.358Z,101628.19
2022-12-01T17:35:11.541Z,101636.03
2022-12-01T17:37:20.428Z,101635.16
2022-12-01T17:39:24.021Z,101631.69
2022-12-01T17:41:32.519Z,101637.78
2022-12-01T17:43:38.196Z,101640.38
2022-12-01T17:45:41.990Z,101641.22
2022-12-01T17:47:45.197Z,101639.53
2022-12-01T17:49:48.419Z,101641.28
2022-12-01T17:51:51.322Z,101643.94
2022-12-01T17:53:54.346Z,101634.31
2022-12-01T17:55:57.354Z,101643.03
2022-12-01T17:58:00.314Z,101639.59
2022-12-01T18:00:05.991Z,101640.44
2022-12-01T18:02:13.108Z,101643.94
2022-12-01T18:04:16.200Z,101639.59
2022-12-01T18:06:19.904Z,101638.66
2022-12-01T18:08:22.877Z,101636.94
2022-12-01T18:10:25.700Z,101645.66
2022-12-01T18:12:28.560Z,101635.19
2022-12-01T18:14:32.656Z,101637.84
2022-12-01T18:16:36.968Z,101633.47
2022-12-01T18:18:40.205Z,101635.25
2022-12-01T18:20:43.957Z,101644.81
2022-12-01T18:22:47.165Z,101641.34
2022-12-01T18:24:50.248Z,101638.69
2022-12-01T18:26:55.782Z,101636.13
2022-12-01T18:29:00.213Z,101637.00
2022-12-01T18:31:07.315Z,101638.69
2022-12-01T18:33:13.162Z,101644.78
2022-12-01T18:35:16.155Z,101641.31
2022-12-01T18:37:19.025Z,101645.69
2022-12-01T18:39:22.021Z,101645.69
2022-12-01T18:41:24.974Z,101636.97
2022-12-01T18:43:28.177Z,101650.06
2022-12-01T18:45:31.220Z,101647.41
2022-12-01T18:47:34.447Z,101651.78
2022-12-01T18:49:38.766Z,101643.09
2022-12-01T18:51:41.836Z,101648.31
2022-12-01T18:53:45.540Z,101645.69
2022-12-01T18:55:48.450Z,101647.44
2022-12-01T18:57:52.376Z,101648.28
2022-12-01T18:59:55.572Z,101645.69
2022-12-01T19:01:58.565Z,101643.09
2022-12-01T19:04:02.553Z,101636.97
2022-12-01T19:06:09.801Z,101637.84
2022-12-01T19:08:12.812Z,101637.84
2022-12-01T19:10:15.948Z,101634.34
2022-12-01T19:12:18.972Z,101632.63
2022-12-01T19:14:23.511Z,101641.34
2022-12-01T19:16:26.755Z,101639.59
2022-12-01T19:18:29.671Z,101636.09
2022-12-01T19:20:32.548Z,101630.00
2022-12-01T19:22:37.655Z,101643.09
2022-12-01T19:24:41.563Z,101629.13
2022-12-01T19:26:48.576Z,101639.59
2022-12-01T19:28:51.523Z,101627.34
2022-12-01T19:30:54.395Z,101633.47
2022-12-01T19:32:57.475Z,101629.09
2022-12-01T19:35:00.633Z,101630.84
2022-12-01T19:37:05.935Z,101633.44
2022-12-01T19:39:11.415Z,101631.66
2022-12-01T19:41:14.996Z,101637.78
2022-12-01T19:43:17.930Z,101636.03
2022-12-01T19:45:20.924Z,101629.94
2022-12-01T19:47:24.276Z,101636.94
2022-12-01T19:49:27.364Z,101643.00
2022-12-01T19:51:31.999Z,101636.94
2022-12-01T19:53:34.964Z,101639.53
2022-12-01T19:55:39.669Z,101637.78
2022-12-01T19:57:42.685Z,101638.63
2022-12-01T19:59:45.570Z,101630.72
2022-12-01T20:01:48.714Z,101636.84
2022-12-01T20:03:53.089Z,101639.44
2022-12-01T20:05:55.993Z,101640.31
2022-12-01T20:07:59.257Z,101636.84
2022-12-01T20:10:02.612Z,101638.53
2022-12-01T20:12:07.701Z,101636.81
2022-12-01T20:14:11.847Z,101629.00
2022-12-01T20:16:16.662Z,101629.00
2022-12-01T20:18:19.755Z,101628.09
2022-12-01T20:20:22.697Z,101629.00
2022-12-01T20:22:26.026Z,101623.75
2022-12-01T20:24:29.283Z,101629.88
2022-12-01T20:26:34.263Z,101618.50
2022-12-01T20:28:40.016Z,101629.00
2022-12-01T20:30:43.013Z,101621.09
2022-12-01T20:32:46.092Z,101618.50
2022-12-01T20:34:49.725Z,101622.88
2022-12-01T20:36:53.558Z,101619.31
2022-12-01T20:38:56.736Z,101621.03
2022-12-01T20:40:59.611Z,101613.19
2022-12-01T20:43:02.612Z,101618.41
2022-12-01T20:45:07.753Z,101615.78
2022-12-01T20:47:10.797Z,101615.81
2022-12-01T20:49:14.511Z,101619.25
2022-12-01T20:51:17.830Z,101627.09
2022-12-01T20:53:21.107Z,101620.06
2022-12-01T20:55:24.474Z,101621.00
2022-12-01T20:57:27.938Z,101621.03
2022-12-01T20:59:31.266Z,101622.72
2022-12-01T21:01:35.850Z,101627.06
2022-12-01T21:03:39.646Z,101628.78
2022-12-01T21:05:43.917Z,101630.50
2022-12-01T21:07:46.869Z,101628.72
2022-12-01T21:09:49.933Z,101627.00
2022-12-01T21:12:10.296Z,101628.78
2022-12-01T21:14:19.057Z,101633.94
2022-12-01T21:16:27.523Z,101626.94
2022-12-01T21:18:42.403Z,101624.38
2022-12-01T21:20:47.041Z,101630.44
2022-12-01T21:22:50.888Z,101627.81
2022-12-01T21:25:04.091Z,101629.63
2022-12-01T21:27:13.811Z,101631.41
2022-12-01T21:29:22.091Z,101624.47
2022-12-01T21:31:26.188Z,101627.06
2022-12-01T21:33:34.175Z,101633.09
2022-12-01T21:35:37.768Z,101630.50
2022-12-01T21:37:41.342Z,101625.22
2022-12-01T21:39:44.250Z,101626.13
2022-12-01T21:41:47.593Z,101625.22
2022-12-01T21:43:50.577Z,101622.59
2022-12-01T21:45:56.650Z,101621.63
2022-12-01T21:48:01.619Z,101616.38
2022-12-01T21:50:15.241Z,101609.38
2022-12-01T21:52:20.745Z,101605.91
2022-12-01T21:54:24.450Z,101610.25
2022-12-01T21:56:29.288Z,101605.84
2022-12-01T21:58:35.207Z,101607.66
2022-12-01T22:00:38.222Z,101600.72
2022-12-01T22:02:50.596Z,101605.06
2022-12-01T22:04:53.508Z,101602.50
2022-12-01T22:06:58.646Z,101602.44
2022-12-01T22:09:03.115Z,101596.38
2022-12-01T22:11:11.665Z,101597.19
2022-12-01T22:13:14.992Z,101592.00
2022-12-01T22:15:37.355Z,101590.28
2022-12-01T22:17:40.359Z,101594.69
2022-12-01T22:19:47.170Z,101587.72
2022-12-01T22:21:50.743Z,101586.84
2022-12-01T22:24:01.260Z,101578.13
2022-12-01T22:26:15.325Z,101578.19
2022-12-01T22:28:22.836Z,101579.06
2022-12-01T22:30:25.776Z,101570.41
2022-12-01T22:32:34.264Z,101569.53
2022-12-01T22:34:37.407Z,101566.03
2022-12-01T22:36:40.453Z,101564.31
2022-12-01T22:38:44.480Z,101576.53
2022-12-01T22:40:55.131Z,101572.16
2022-12-01T22:43:00.281Z,101563.50
2022-12-01T22:45:20.401Z,101567.88
2022-12-01T22:47:23.329Z,101566.16
2022-12-01T22:49:26.346Z,101576.59
2022-12-01T22:51:48.575Z,101569.59
2022-12-01T22:53:54.752Z,101574.78
2022-12-01T22:56:01.534Z,101566.94
2022-12-01T22:58:14.043Z,101573.00
2022-12-01T23:00:18.906Z,101570.44
2022-12-01T23:02:23.558Z,101566.09
2022-12-01T23:04:27.661Z,101566.09
2022-12-01T23:07:05.617Z,101557.38
2022-12-01T23:09:13.685Z,101563.47
2022-12-01T23:11:17.934Z,101563.47
2022-12-01T23:13:22.160Z,101562.59
2022-12-01T23:15:32.181Z,101552.97
2022-12-01T23:17:38.916Z,101550.38
2022-12-01T23:19:41.813Z,101556.50
2022-12-01T23:21:44.921Z,101549.47
2022-12-01T23:23:47.780Z,101551.25
2022-12-01T23:25:51.894Z,101543.47
2022-12-01T23:28:00.053Z,101540.03
2022-12-01T23:30:03.134Z,101540.88
2022-12-01T23:32:06.405Z,101543.47
2022-12-01T23:34:14.423Z,101533.91
2022-12-01T23:36:20.196Z,101535.66
2022-12-01T23:38:24.759Z,101536.53
2022-12-01T23:40:31.658Z,101533.91
2022-12-01T23:42:34.639Z,101530.41
2022-12-01T23:44:42.040Z,101528.69
2022-12-01T23:46:45.064Z,101538.25
2022-12-01T23:48:50.795Z,101527.81
2022-12-01T23:50:54.924Z,101522.59
2022-12-01T23:52:58.448Z,101525.19
2022-12-01T23:55:01.319Z,101521.66
2022-12-01T23:57:07.992Z,101529.53
2022-12-01T23:59:11.807Z,101528.59
